Time;durP1;ratioP1;P1;durP2;ratioP2;P2;SDS_P1;SDS_P2;PMS_P1;PMS_P2;Temp;Humidity;BMP_temperature;BMP_pressure;BME280_temperature;BME280_humidity;BME280_pressure;Samples;Min_cycle;Max_cycle;Signal;HPM_P1;HPM_P2
2022/07/03 00:01:27;;;;;;;2.42;1.48;;;18.20;99.90;;;;;;5033313;28;20470;-39
2022/07/03 00:03:53;;;;;;;3.58;1.05;;;18.10;99.90;;;;;;5034034;28;20029;-64
2022/07/03 00:06:19;;;;;;;2.05;1.58;;;18.00;99.90;;;;;;5033166;28;20061;-47
2022/07/03 00:08:44;;;;;;;2.75;1.15;;;18.00;99.90;;;;;;5032411;28;20092;-40
2022/07/03 00:11:11;;;;;;;1.45;1.30;;;18.00;99.90;;;;;;5030774;28;20033;-40
2022/07/03 00:13:37;;;;;;;3.70;1.55;;;17.90;99.90;;;;;;5035926;28;20026;-38
2022/07/03 00:16:03;;;;;;;1.80;1.33;;;17.90;99.90;;;;;;5032718;28;20482;-40
2022/07/03 00:18:28;;;;;;;2.15;1.58;;;17.80;99.90;;;;;;5033230;28;20026;-40
2022/07/03 00:21:00;;;;;;;1.98;1.50;;;17.80;99.90;;;;;;5033513;28;20032;-34
2022/07/03 00:23:38;;;;;;;3.00;1.35;;;17.80;99.90;;;;;;5032187;28;20527;-42
2022/07/03 00:26:04;;;;;;;;;;;17.80;99.90;;;;;;5033146;28;20017;-40
2022/07/03 00:28:31;;;;;;;2.17;1.20;;;17.70;99.90;;;;;;5020667;28;19919;-39
2022/07/03 00:30:57;;;;;;;1.30;1.20;;;17.70;99.90;;;;;;5028992;28;20021;-36
2022/07/03 00:33:27;;;;;;;1.67;1.48;;;17.60;99.90;;;;;;5038848;28;20525;-36
2022/07/03 00:35:55;;;;;;;1.25;1.15;;;17.60;99.90;;;;;;5025643;28;20061;-40
2022/07/03 00:38:22;;;;;;;3.38;1.45;;;17.60;99.90;;;;;;5029481;28;20021;-41
2022/07/03 00:40:48;;;;;;;2.22;1.23;;;17.50;99.90;;;;;;5033030;28;20485;-31
2022/07/03 00:43:17;;;;;;;4.18;1.75;;;17.50;99.90;;;;;;5032195;28;20022;-33
2022/07/03 00:45:46;;;;;;;2.28;1.55;;;17.50;99.90;;;;;;5032245;28;20030;-39
2022/07/03 00:48:15;;;;;;;2.25;1.60;;;17.50;99.90;;;;;;5028914;28;20025;-31
2022/07/03 00:50:46;;;;;;;2.25;1.38;;;17.40;99.90;;;;;;5023343;28;20486;-32
2022/07/03 00:53:13;;;;;;;2.60;1.42;;;17.40;99.90;;;;;;5025428;28;20033;-31
2022/07/03 00:55:42;;;;;;;3.78;1.50;;;17.40;99.90;;;;;;5036522;28;20022;-34
2022/07/03 00:58:09;;;;;;;2.67;1.35;;;17.30;99.90;;;;;;5033308;28;20036;-30
2022/07/03 01:00:40;;;;;;;4.00;1.60;;;17.30;99.90;;;;;;5031976;28;20032;-31
2022/07/03 01:03:11;;;;;;;2.10;1.40;;;17.30;99.90;;;;;;5027585;28;20488;-31
2022/07/03 01:05:40;;;;;;;5.03;1.35;;;17.30;99.90;;;;;;5038842;28;20465;-32
2022/07/03 01:08:09;;;;;;;2.35;1.58;;;17.30;99.90;;;;;;5053440;28;20033;-33
2022/07/03 01:10:55;;;;;;;2.13;1.38;;;17.30;99.90;;;;;;5033425;28;20048;-31
2022/07/03 01:14:05;;;;;;;2.38;1.42;;;17.20;99.90;;;;;;5038685;28;20048;-30
2022/07/03 01:16:49;;;;;;;2.83;1.45;;;17.20;99.90;;;;;;5006730;28;20450;-34
2022/07/03 01:19:44;;;;;;;2.17;1.42;;;17.20;99.90;;;;;;5030323;28;20368;-33
2022/07/03 01:22:34;;;;;;;3.35;1.73;;;17.20;99.90;;;;;;5030190;28;20089;-31
2022/07/03 01:25:00;;;;;;;7.80;1.90;;;17.30;99.90;;;;;;5032383;28;20109;-32
2022/07/03 01:27:49;;;;;;;2.50;1.58;;;17.30;99.90;;;;;;5031339;28;20541;-42
2022/07/03 01:30:15;;;;;;;1.58;1.30;;;17.30;99.90;;;;;;5022625;28;20048;-32
2022/07/03 01:32:46;;;;;;;1.45;1.35;;;17.30;99.90;;;;;;5029749;28;20033;-31
2022/07/03 01:35:13;;;;;;;2.03;1.55;;;17.30;99.90;;;;;;5031627;28;20021;-41
2022/07/03 01:37:40;;;;;;;;;;;17.20;99.90;;;;;;5033297;28;20119;-37
2022/07/03 01:40:07;;;;;;;3.35;2.00;;;17.20;99.90;;;;;;5034287;28;19909;-33
2022/07/03 01:42:34;;;;;;;1.53;1.43;;;17.10;99.90;;;;;;5035471;28;20461;-32
2022/07/03 01:45:00;;;;;;;1.85;1.20;;;17.10;99.90;;;;;;5034684;28;20650;-34
2022/07/03 01:47:28;;;;;;;1.67;1.27;;;17.00;99.90;;;;;;5042385;28;20029;-59
2022/07/03 01:49:54;;;;;;;;;;;17.00;99.90;;;;;;5035776;28;20359;-40
2022/07/03 01:52:21;;;;;;;2.30;1.40;;;16.90;99.90;;;;;;5036662;28;20380;-41
2022/07/03 01:54:49;;;;;;;5.35;1.50;;;16.80;99.90;;;;;;5034551;28;20503;-40
2022/07/03 01:57:14;;;;;;;2.45;1.60;;;16.80;99.90;;;;;;5031043;28;20033;-35
2022/07/03 01:59:40;;;;;;;2.80;1.60;;;16.90;99.90;;;;;;5036639;28;20030;-34
2022/07/03 02:02:31;;;;;;;2.17;1.90;;;16.80;99.90;;;;;;5035380;28;20030;-35
2022/07/03 02:05:07;;;;;;;3.33;1.73;;;16.80;99.90;;;;;;5026061;28;20022;-33
2022/07/03 02:07:55;;;;;;;2.20;1.73;;;16.90;99.90;;;;;;5032737;28;20437;-32
2022/07/03 02:10:33;;;;;;;1.65;1.55;;;16.80;99.90;;;;;;5035430;28;20565;-29
2022/07/03 02:13:10;;;;;;;3.10;1.67;;;16.80;99.90;;;;;;5035368;28;20039;-31
2022/07/03 02:15:40;;;;;;;3.38;1.83;;;16.80;99.90;;;;;;5030409;28;20580;-33
2022/07/03 02:18:28;;;;;;;2.85;1.92;;;16.80;99.90;;;;;;5033688;28;20029;-36
2022/07/03 02:21:13;;;;;;;4.88;2.33;;;16.70;99.90;;;;;;5041391;28;20392;-31
2022/07/03 02:24:06;;;;;;;6.05;2.58;;;16.70;99.90;;;;;;5052775;28;20722;-48
2022/07/03 02:26:39;;;;;;;3.00;2.40;;;16.80;99.90;;;;;;5035115;28;20017;-30
2022/07/03 02:29:07;;;;;;;3.78;2.40;;;16.80;99.90;;;;;;5035536;28;20385;-30
2022/07/03 02:31:41;;;;;;;5.20;2.53;;;16.80;99.90;;;;;;5044856;28;20029;-38
2022/07/03 02:34:07;;;;;;;2.97;2.15;;;16.90;99.90;;;;;;5032384;28;20101;-35
2022/07/03 02:36:35;;;;;;;6.03;2.25;;;17.00;99.90;;;;;;5033535;28;20057;-33
2022/07/03 02:39:01;;;;;;;;;;;17.00;99.90;;;;;;5032872;28;20041;-30
2022/07/03 02:41:51;;;;;;;2.15;1.90;;;17.00;99.90;;;;;;5035288;28;19955;-32
2022/07/03 02:44:25;;;;;;;2.33;1.85;;;17.10;99.90;;;;;;5035656;28;20577;-31
2022/07/03 02:47:15;;;;;;;3.20;2.20;;;17.10;99.90;;;;;;5034357;28;20026;-33
2022/07/03 02:50:00;;;;;;;3.00;2.40;;;17.10;99.90;;;;;;5033589;28;20033;-33
2022/07/03 02:52:34;;;;;;;1.88;1.77;;;17.20;99.90;;;;;;5034339;28;20363;-32
2022/07/03 02:55:07;;;;;;;4.80;2.47;;;17.20;99.90;;;;;;5037163;28;20584;-33
2022/07/03 02:57:40;;;;;;;1.98;1.77;;;17.20;99.90;;;;;;5034678;28;20052;-29
2022/07/03 03:00:15;;;;;;;2.58;2.25;;;17.30;99.90;;;;;;5034927;28;20025;-32
2022/07/03 03:02:55;;;;;;;2.30;1.63;;;17.30;99.90;;;;;;5033122;28;20025;-43
2022/07/03 03:05:46;;;;;;;3.25;2.00;;;17.30;99.90;;;;;;5034329;28;20034;-29
2022/07/03 03:08:15;;;;;;;2.15;1.95;;;17.30;99.90;;;;;;5032356;28;20486;-30
2022/07/03 03:10:43;;;;;;;1.50;1.40;;;17.30;99.90;;;;;;5048081;28;20086;-32
2022/07/03 03:13:13;;;;;;;1.27;1.23;;;17.30;99.90;;;;;;5034215;28;20038;-31
2022/07/03 03:15:47;;;;;;;1.63;1.52;;;17.30;99.90;;;;;;5032854;28;20049;-30
2022/07/03 03:18:21;;;;;;;1.92;1.33;;;17.30;99.90;;;;;;5033276;28;20029;-29
2022/07/03 03:20:50;;;;;;;3.05;1.90;;;17.20;99.90;;;;;;5048705;28;20052;-29
2022/07/03 03:23:35;;;;;;;1.77;1.33;;;17.20;99.90;;;;;;5054226;28;20102;-35
2022/07/03 03:26:01;;;;;;;2.10;1.38;;;17.20;99.90;;;;;;5031062;28;20047;-39
2022/07/03 03:28:27;;;;;;;2.70;1.65;;;17.10;99.90;;;;;;5033113;28;20025;-32
2022/07/03 03:30:53;;;;;;;1.95;1.75;;;17.10;99.90;;;;;;5034241;28;20032;-42
2022/07/03 03:33:20;;;;;;;1.90;1.70;;;17.10;99.90;;;;;;5033315;28;20029;-36
2022/07/03 03:35:47;;;;;;;3.77;1.97;;;17.10;99.90;;;;;;5033821;28;20029;-35
2022/07/03 03:38:12;;;;;;;4.43;1.83;;;17.10;99.90;;;;;;5033485;28;20489;-37
2022/07/03 03:40:38;;;;;;;2.20;2.00;;;17.10;99.90;;;;;;5033236;28;20036;-31
2022/07/03 03:43:04;;;;;;;2.60;2.20;;;17.10;99.90;;;;;;5042719;28;20037;-36
2022/07/03 03:45:30;;;;;;;2.15;1.92;;;17.10;99.90;;;;;;5034741;28;20558;-32
2022/07/03 03:47:56;;;;;;;2.33;1.80;;;17.10;99.90;;;;;;5031541;28;20079;-32
2022/07/03 03:50:22;;;;;;;3.53;2.05;;;17.10;99.90;;;;;;5034554;28;20025;-38
2022/07/03 03:52:48;;;;;;;2.30;2.10;;;17.10;99.90;;;;;;5034704;28;20032;-39
2022/07/03 03:55:14;;;;;;;3.75;1.95;;;17.10;99.90;;;;;;5033666;28;20042;-36
2022/07/03 03:57:39;;;;;;;2.83;1.73;;;17.10;99.90;;;;;;5035617;28;20029;-38
2022/07/03 04:00:06;;;;;;;3.00;1.40;;;17.20;99.90;;;;;;5032180;28;20044;-38
2022/07/03 04:02:32;;;;;;;5.00;1.57;;;17.30;99.90;;;;;;5032976;28;20010;-38
2022/07/03 04:04:58;;;;;;;6.25;1.50;;;17.30;99.90;;;;;;5032072;28;20025;-38
2022/07/03 04:07:23;;;;;;;2.33;1.70;;;17.30;99.90;;;;;;5032823;28;20042;-38
2022/07/03 04:09:49;;;;;;;4.78;1.63;;;17.30;99.90;;;;;;5032827;28;20036;-39
2022/07/03 04:12:15;;;;;;;2.72;1.83;;;17.30;99.90;;;;;;5033253;28;20033;-38
2022/07/03 04:14:40;;;;;;;1.77;1.67;;;17.30;99.90;;;;;;5032735;28;20612;-39
2022/07/03 04:17:06;;;;;;;4.35;1.50;;;17.30;99.90;;;;;;5033207;28;20040;-39
2022/07/03 04:19:32;;;;;;;2.75;1.67;;;17.40;99.90;;;;;;5033158;28;20029;-41
2022/07/03 04:21:57;;;;;;;2.63;1.85;;;17.40;99.90;;;;;;5031398;28;20032;-31
2022/07/03 04:24:23;;;;;;;1.58;1.30;;;17.40;99.90;;;;;;5031218;28;20021;-34
2022/07/03 04:26:49;;;;;;;2.30;1.92;;;17.40;99.90;;;;;;5033961;28;20055;-34
2022/07/03 04:29:15;;;;;;;1.90;1.40;;;17.40;99.90;;;;;;5033834;28;20022;-33
2022/07/03 04:31:40;;;;;;;2.53;1.23;;;17.50;99.90;;;;;;5033185;28;20029;-32
2022/07/03 04:34:06;;;;;;;1.20;0.95;;;17.50;99.90;;;;;;5033407;28;20029;-37
2022/07/03 04:36:32;;;;;;;5.88;1.35;;;17.50;99.90;;;;;;5033109;28;20056;-37
2022/07/03 04:38:57;;;;;;;1.35;1.25;;;17.60;99.90;;;;;;5033605;28;20478;-37
2022/07/03 04:41:23;;;;;;;3.33;1.38;;;17.50;99.90;;;;;;5033038;28;20091;-32
2022/07/03 04:43:49;;;;;;;4.40;1.38;;;17.50;99.90;;;;;;5033404;28;20025;-33
2022/07/03 04:46:14;;;;;;;6.72;1.65;;;17.50;99.90;;;;;;5040882;28;20478;-34
2022/07/03 04:48:40;;;;;;;2.08;1.10;;;17.60;99.90;;;;;;5031642;28;20106;-35
2022/07/03 04:51:06;;;;;;;1.15;1.10;;;17.60;99.90;;;;;;5031891;28;20041;-30
2022/07/03 04:53:32;;;;;;;2.80;1.08;;;17.70;99.90;;;;;;5032356;28;21313;-32
2022/07/03 04:55:58;;;;;;;1.42;1.20;;;17.80;99.90;;;;;;5051543;28;20104;-31
2022/07/03 04:58:23;;;;;;;1.70;1.10;;;17.80;99.90;;;;;;5030331;28;20025;-40
2022/07/03 05:00:49;;;;;;;3.05;1.25;;;18.00;99.90;;;;;;5046598;28;20039;-31
2022/07/03 05:03:15;;;;;;;3.42;1.17;;;18.00;99.90;;;;;;5032364;28;20076;-35
2022/07/03 05:05:40;;;;;;;2.13;1.05;;;18.10;99.90;;;;;;5030655;28;20021;-32
2022/07/03 05:08:06;;;;;;;0.88;0.63;;;18.10;99.90;;;;;;5031272;28;20029;-39
2022/07/03 05:10:32;;;;;;;3.72;1.63;;;18.10;99.90;;;;;;5032467;28;20076;-35
2022/07/03 05:12:58;;;;;;;2.42;0.95;;;18.00;99.90;;;;;;5033263;28;20040;-32
2022/07/03 05:15:23;;;;;;;8.52;2.13;;;18.10;99.90;;;;;;5029469;28;20099;-34
2022/07/03 05:17:49;;;;;;;3.10;1.30;;;18.10;99.90;;;;;;5032006;28;20034;-34
2022/07/03 05:20:23;;;;;;;0.90;0.80;;;18.10;99.90;;;;;;5032735;28;20047;-37
2022/07/03 05:22:49;;;;;;;0.82;0.80;;;18.10;99.90;;;;;;5029264;28;20084;-40
2022/07/03 05:25:15;;;;;;;2.35;1.13;;;18.10;99.90;;;;;;5027391;28;20025;-39
2022/07/03 05:27:41;;;;;;;4.03;1.42;;;18.20;99.90;;;;;;5031294;28;20065;-39
2022/07/03 05:30:07;;;;;;;3.97;0.90;;;18.30;99.90;;;;;;5030667;28;20068;-31
2022/07/03 05:32:32;;;;;;;1.13;0.90;;;18.40;99.90;;;;;;5031243;28;20461;-46
2022/07/03 05:34:58;;;;;;;1.55;0.95;;;18.40;99.90;;;;;;5033200;28;20036;-40
2022/07/03 05:37:24;;;;;;;3.50;1.20;;;18.40;99.90;;;;;;5032976;28;20026;-40
2022/07/03 05:39:49;;;;;;;6.45;1.25;;;18.40;99.90;;;;;;5026760;28;20378;-40
2022/07/03 05:42:15;;;;;;;2.05;1.00;;;18.40;99.90;;;;;;5019831;28;20022;-40
2022/07/03 05:44:40;;;;;;;2.78;0.95;;;18.40;99.90;;;;;;5031934;28;20026;-37
2022/07/03 05:47:06;;;;;;;5.68;0.98;;;18.50;99.90;;;;;;5045194;28;20036;-38
2022/07/03 05:49:31;;;;;;;1.15;0.90;;;18.60;99.90;;;;;;5034717;28;20029;-41
2022/07/03 05:51:57;;;;;;;5.50;1.58;;;18.70;99.90;;;;;;5033038;28;20034;-40
2022/07/03 05:54:23;;;;;;;3.75;1.13;;;18.80;99.90;;;;;;5033210;28;20378;-40
2022/07/03 05:56:48;;;;;;;0.98;0.70;;;18.80;99.90;;;;;;5031439;28;20025;-40
2022/07/03 05:59:14;;;;;;;4.40;1.15;;;18.80;99.90;;;;;;5031213;28;20025;-40
2022/07/03 06:01:39;;;;;;;3.78;0.80;;;18.90;99.90;;;;;;5044877;28;20021;-40
2022/07/03 06:04:05;;;;;;;3.10;1.10;;;19.00;99.90;;;;;;5048052;28;20424;-47
2022/07/03 06:06:31;;;;;;;5.07;1.08;;;19.00;99.90;;;;;;5032030;28;20030;-41
2022/07/03 06:08:56;;;;;;;5.97;1.20;;;19.10;99.90;;;;;;5030345;28;20029;-38
2022/07/03 06:11:22;;;;;;;5.57;1.00;;;19.30;99.90;;;;;;5031825;28;20083;-67
2022/07/03 06:13:47;;;;;;;4.32;0.98;;;19.60;99.90;;;;;;5028786;28;20038;-41
2022/07/03 06:16:13;;;;;;;1.52;0.75;;;19.80;99.90;;;;;;5031309;28;20479;-37
2022/07/03 06:18:38;;;;;;;2.70;1.10;;;19.80;99.90;;;;;;5030452;28;20087;-40
2022/07/03 06:21:04;;;;;;;1.05;0.82;;;19.80;99.90;;;;;;5032762;28;20492;-39
2022/07/03 06:23:30;;;;;;;2.15;0.88;;;20.70;99.90;;;;;;5039042;28;20057;-40
2022/07/03 06:25:55;;;;;;;2.22;0.75;;;20.90;99.90;;;;;;5038723;28;20430;-40
2022/07/03 06:28:21;;;;;;;7.25;0.70;;;21.70;99.90;;;;;;5032859;28;20116;-46
2022/07/03 06:30:46;;;;;;;2.13;0.77;;;23.40;99.90;;;;;;5034594;28;20032;-38
2022/07/03 06:33:12;;;;;;;2.88;0.80;;;25.00;99.90;;;;;;5033319;28;20389;-37
2022/07/03 06:35:37;;;;;;;9.32;1.48;;;24.80;99.90;;;;;;5035116;28;20107;-37
2022/07/03 06:38:04;;;;;;;3.22;0.73;;;24.00;99.90;;;;;;5033869;28;20037;-38
2022/07/03 06:40:30;;;;;;;1.95;1.08;;;24.70;99.90;;;;;;5034291;28;20030;-38
2022/07/03 06:42:55;;;;;;;2.58;1.27;;;26.30;99.90;;;;;;5031635;28;20106;-38
2022/07/03 06:45:21;;;;;;;6.82;1.20;;;27.40;98.80;;;;;;5035237;28;20032;-37
2022/07/03 06:47:46;;;;;;;3.78;1.23;;;27.20;98.20;;;;;;5034037;28;20061;-37
2022/07/03 06:50:12;;;;;;;7.43;1.65;;;26.70;98.90;;;;;;5032974;28;20025;-44
2022/07/03 06:52:38;;;;;;;3.97;1.00;;;26.00;99.30;;;;;;5031255;28;20409;-38
2022/07/03 06:55:04;;;;;;;3.72;1.10;;;24.90;99.90;;;;;;5029327;28;20358;-36
2022/07/03 06:57:30;;;;;;;3.13;1.00;;;24.00;99.90;;;;;;5033469;28;20037;-31
2022/07/03 06:59:55;;;;;;;1.23;0.77;;;23.20;99.90;;;;;;5030674;28;20033;-32
2022/07/03 07:02:21;;;;;;;3.20;0.73;;;23.00;99.90;;;;;;5035519;28;20022;-31
2022/07/03 07:04:46;;;;;;;2.95;0.98;;;23.00;99.90;;;;;;5034554;28;20521;-31
2022/07/03 07:07:12;;;;;;;1.20;0.70;;;23.00;99.90;;;;;;5033936;28;20013;-32
2022/07/03 07:09:37;;;;;;;0.63;0.60;;;23.90;99.90;;;;;;5034002;28;20512;-31
2022/07/03 07:12:04;;;;;;;8.38;1.10;;;24.80;99.90;;;;;;5033214;28;20080;-35
2022/07/03 07:14:29;;;;;;;2.70;0.80;;;25.60;99.80;;;;;;5035134;28;20049;-38
2022/07/03 07:16:55;;;;;;;4.28;0.90;;;26.60;98.90;;;;;;5031539;28;20478;-34
2022/07/03 07:19:20;;;;;;;3.30;0.88;;;28.00;97.70;;;;;;5034318;28;20493;-33
2022/07/03 07:21:46;;;;;;;5.75;1.05;;;28.70;96.70;;;;;;5032272;28;20576;-37
2022/07/03 07:24:12;;;;;;;1.83;0.85;;;28.50;96.50;;;;;;5033263;28;20497;-36
2022/07/03 07:26:37;;;;;;;1.15;0.65;;;28.90;96.50;;;;;;5034965;28;20111;-34
2022/07/03 07:29:03;;;;;;;1.95;0.90;;;29.20;96.20;;;;;;5033982;28;20529;-35
2022/07/03 07:31:29;;;;;;;2.35;0.77;;;29.60;95.40;;;;;;5034107;28;20038;-32
2022/07/03 07:33:54;;;;;;;9.13;2.33;;;29.60;95.10;;;;;;5033124;28;20115;-35
2022/07/03 07:36:20;;;;;;;3.38;0.60;;;29.90;94.50;;;;;;5034000;28;20057;-32
2022/07/03 07:38:45;;;;;;;2.95;1.63;;;29.80;94.50;;;;;;5033161;28;20025;-36
2022/07/03 07:41:11;;;;;;;1.20;0.70;;;29.60;94.40;;;;;;5035033;28;20044;-35
2022/07/03 07:43:37;;;;;;;2.28;0.57;;;29.20;94.80;;;;;;5033793;28;20021;-35
2022/07/03 07:46:02;;;;;;;2.30;1.02;;;28.40;95.00;;;;;;5033056;28;20029;-30
2022/07/03 07:48:28;;;;;;;3.28;0.75;;;27.90;95.70;;;;;;5032798;28;20072;-31
2022/07/03 07:50:53;;;;;;;0.82;0.82;;;27.80;96.00;;;;;;5027068;28;20473;-36
2022/07/03 07:53:19;;;;;;;1.70;0.60;;;27.50;95.80;;;;;;5027914;28;20034;-34
2022/07/03 07:55:44;;;;;;;3.10;0.90;;;26.90;95.80;;;;;;5031375;28;20033;-40
2022/07/03 07:58:10;;;;;;;3.47;0.85;;;26.10;96.40;;;;;;5028499;28;20100;-34
2022/07/03 08:00:36;;;;;;;2.25;0.98;;;25.80;96.70;;;;;;5030065;28;20040;-31
2022/07/03 08:05:45;;;;;;;1.38;0.65;;;24.80;97.60;;;;;;5031898;28;20095;-32
2022/07/03 08:08:13;;;;;;;3.05;0.93;;;24.60;98.10;;;;;;5034251;28;20026;-31
2022/07/03 08:10:46;;;;;;;2.90;0.80;;;24.20;98.40;;;;;;5033178;28;20493;-35
2022/07/03 08:13:13;;;;;;;2.58;0.80;;;23.90;98.70;;;;;;5033109;28;20040;-32
2022/07/03 08:15:40;;;;;;;1.33;0.40;;;23.50;99.30;;;;;;5048852;28;20041;-33
2022/07/03 08:18:06;;;;;;;4.43;1.00;;;23.30;99.80;;;;;;5041059;28;20288;-39
2022/07/03 08:20:33;;;;;;;5.10;1.02;;;23.30;99.90;;;;;;5031342;28;20061;-31
2022/07/03 08:22:59;;;;;;;4.78;0.85;;;23.30;99.90;;;;;;5033320;28;20033;-35
2022/07/03 08:25:25;;;;;;;2.38;0.60;;;23.00;99.90;;;;;;5031710;28;20025;-34
2022/07/03 08:27:51;;;;;;;1.90;1.08;;;22.80;99.90;;;;;;5032722;28;20018;-35
2022/07/03 08:30:18;;;;;;;2.70;0.70;;;22.90;99.90;;;;;;5032896;28;20509;-36
2022/07/03 08:32:48;;;;;;;3.27;0.70;;;23.10;99.90;;;;;;5030556;28;20488;-33
2022/07/03 08:35:14;;;;;;;2.13;0.98;;;23.30;99.90;;;;;;5039787;28;20052;-33
2022/07/03 08:37:43;;;;;;;2.80;0.90;;;23.20;99.90;;;;;;5031825;28;20033;-32
2022/07/03 08:40:12;;;;;;;2.33;0.90;;;22.90;99.90;;;;;;5031454;28;20096;-33
2022/07/03 08:42:42;;;;;;;3.25;0.90;;;22.50;99.90;;;;;;5048097;28;20489;-34
2022/07/03 08:45:12;;;;;;;2.60;1.20;;;22.20;99.90;;;;;;5017248;28;20540;-33
2022/07/03 08:47:40;;;;;;;5.05;1.02;;;22.20;99.90;;;;;;5032367;28;20394;-35
2022/07/03 08:50:06;;;;;;;3.47;0.93;;;22.60;99.90;;;;;;5033062;28;20033;-31
2022/07/03 08:52:34;;;;;;;1.25;0.65;;;22.90;99.90;;;;;;5034092;28;20079;-33
2022/07/03 08:54:59;;;;;;;2.08;0.70;;;23.20;99.90;;;;;;5028877;28;20052;-32
2022/07/03 08:57:26;;;;;;;4.20;1.15;;;24.00;99.30;;;;;;5022262;28;20029;-37
2022/07/03 08:59:53;;;;;;;2.03;0.95;;;24.60;99.30;;;;;;5034639;28;20494;-38
2022/07/03 09:02:18;;;;;;;1.65;0.73;;;25.40;98.00;;;;;;5030818;28;20385;-40
2022/07/03 09:04:46;;;;;;;1.15;0.43;;;26.10;97.50;;;;;;5031330;28;20112;-60
2022/07/03 09:07:13;;;;;;;3.50;1.27;;;26.50;96.90;;;;;;5030023;28;20497;-40
2022/07/03 09:09:39;;;;;;;0.73;0.70;;;26.90;95.80;;;;;;5030991;28;20497;-39
2022/07/03 09:12:06;;;;;;;4.65;1.02;;;27.10;95.60;;;;;;5032596;28;20053;-40
2022/07/03 09:14:32;;;;;;;1.67;0.98;;;26.60;96.40;;;;;;5029075;28;20044;-40
2022/07/03 09:16:58;;;;;;;4.95;0.85;;;26.60;96.30;;;;;;5022174;28;20025;-39
2022/07/03 09:19:47;;;;;;;3.33;0.80;;;27.00;95.90;;;;;;5029677;28;20489;-44
2022/07/03 09:22:30;;;;;;;1.73;0.75;;;27.20;96.30;;;;;;5032684;28;20104;-40
2022/07/03 09:25:14;;;;;;;4.43;1.13;;;26.20;97.40;;;;;;5030921;28;20362;-40
2022/07/03 09:27:51;;;;;;;1.77;1.08;;;25.20;98.40;;;;;;5030625;28;20029;-40
2022/07/03 09:30:17;;;;;;;1.67;1.00;;;24.70;98.90;;;;;;5020590;28;20033;-41
2022/07/03 09:32:48;;;;;;;2.13;0.82;;;24.30;99.20;;;;;;5029125;28;20029;-40
2022/07/03 09:35:22;;;;;;;2.33;1.00;;;23.80;99.90;;;;;;5032866;28;20416;-42
2022/07/03 09:37:50;;;;;;;3.90;1.20;;;23.30;99.90;;;;;;5031142;28;20466;-42
2022/07/03 09:40:16;;;;;;;2.03;1.00;;;22.70;99.90;;;;;;5033336;28;20026;-39
2022/07/03 09:42:56;;;;;;;1.70;1.10;;;22.50;99.90;;;;;;5027342;28;20561;-39
2022/07/03 09:45:22;;;;;;;2.38;1.23;;;22.50;99.90;;;;;;5029094;28;20026;-39
2022/07/03 09:47:48;;;;;;;2.72;1.25;;;22.30;99.90;;;;;;5031943;28;20032;-38
2022/07/03 09:50:14;;;;;;;2.45;1.15;;;22.20;99.90;;;;;;5032229;28;20104;-55
2022/07/03 09:52:43;;;;;;;4.63;1.23;;;22.30;99.90;;;;;;5028652;28;20033;-42
2022/07/03 09:55:08;;;;;;;2.20;0.90;;;22.80;99.90;;;;;;5027395;28;20551;-37
2022/07/03 09:57:35;;;;;;;2.17;1.05;;;23.20;99.90;;;;;;5038278;28;20017;-38
2022/07/03 10:00:22;;;;;;;2.53;1.23;;;23.60;99.90;;;;;;5027876;28;20026;-31
2022/07/03 10:03:09;;;;;;;5.80;1.20;;;23.80;99.90;;;;;;5032837;28;20036;-32
2022/07/03 10:05:42;;;;;;;2.20;1.10;;;23.60;99.90;;;;;;5031717;28;20063;-50
2022/07/03 10:08:12;;;;;;;7.10;1.20;;;22.80;99.90;;;;;;5046553;28;20702;-35
2022/07/03 10:10:40;;;;;;;1.90;1.33;;;22.30;99.90;;;;;;5032132;28;20025;-38
2022/07/03 10:13:06;;;;;;;2.55;1.13;;;22.00;99.90;;;;;;5031248;28;20033;-37
2022/07/03 10:15:37;;;;;;;3.75;1.30;;;21.80;99.90;;;;;;5026712;28;20416;-36
2022/07/03 10:18:08;;;;;;;1.67;1.55;;;21.70;99.90;;;;;;5026727;28;20429;-37
2022/07/03 10:20:45;;;;;;;6.25;1.02;;;21.60;99.90;;;;;;5033188;28;20462;-39
2022/07/03 10:23:11;;;;;;;2.13;1.15;;;21.60;99.90;;;;;;5032230;28;20579;-38
2022/07/03 10:25:41;;;;;;;4.15;1.00;;;21.60;99.90;;;;;;5035156;28;20168;-39
2022/07/03 10:28:07;;;;;;;3.30;1.40;;;21.40;99.90;;;;;;5032743;28;20481;-41
2022/07/03 10:30:33;;;;;;;4.20;2.35;;;21.30;99.90;;;;;;5029904;28;20028;-38
2022/07/03 10:32:59;;;;;;;2.40;0.95;;;21.20;99.90;;;;;;5035528;28;20378;-29
2022/07/03 10:35:33;;;;;;;2.95;1.10;;;21.10;99.90;;;;;;5031978;28;20021;-34
2022/07/03 10:38:02;;;;;;;4.05;1.13;;;21.10;99.90;;;;;;5032076;28;20029;-33
2022/07/03 10:46:22;;;;;;;3.28;1.17;;;20.10;99.90;;;;;;5015967;28;20500;-32
2022/07/03 10:49:05;;;;;;;3.90;0.98;;;19.80;99.90;;;;;;5031044;28;20478;-40
2022/07/03 10:51:44;;;;;;;3.60;1.27;;;19.70;99.90;;;;;;5033818;28;20025;-34
2022/07/03 10:54:13;;;;;;;1.52;1.23;;;19.90;99.90;;;;;;5035798;28;20508;-32
2022/07/03 10:56:57;;;;;;;5.78;1.90;;;20.60;99.90;;;;;;5030264;28;20497;-33
2022/07/03 10:59:46;;;;;;;3.00;1.30;;;20.80;99.90;;;;;;5033718;28;20040;-33
2022/07/03 11:02:19;;;;;;;2.75;1.05;;;20.80;99.90;;;;;;5032994;28;20064;-37
2022/07/03 11:04:56;;;;;;;4.70;1.02;;;20.70;99.90;;;;;;5034683;28;20037;-31
2022/07/03 11:07:23;;;;;;;3.65;1.00;;;20.40;99.90;;;;;;5033157;28;20513;-31
2022/07/03 11:10:12;;;;;;;3.58;1.15;;;20.40;99.90;;;;;;5037082;28;20028;-38
2022/07/03 11:12:54;;;;;;;6.22;1.20;;;20.60;99.90;;;;;;5026503;28;20061;-33
2022/07/03 11:15:32;;;;;;;1.08;0.77;;;21.00;99.90;;;;;;5026146;28;20145;-35
2022/07/03 11:18:13;;;;;;;1.33;0.55;;;21.60;99.90;;;;;;5026335;28;20033;-37
2022/07/03 11:20:41;;;;;;;3.38;1.30;;;22.10;99.90;;;;;;5028973;28;20115;-36
2022/07/03 11:23:13;;;;;;;2.97;1.10;;;22.00;99.90;;;;;;5033388;28;20033;-34
2022/07/03 11:25:39;;;;;;;2.30;1.00;;;21.70;99.90;;;;;;5033585;28;20033;-30
2022/07/03 11:28:05;;;;;;;1.75;1.45;;;21.50;99.90;;;;;;5033395;28;20026;-34
2022/07/03 11:30:31;;;;;;;2.00;0.90;;;21.30;99.90;;;;;;5034425;28;20396;-38
2022/07/03 11:33:00;;;;;;;1.30;1.13;;;21.40;99.90;;;;;;5035303;28;20540;-36
2022/07/03 11:35:51;;;;;;;3.13;1.13;;;21.60;99.90;;;;;;5034093;28;20026;-31
2022/07/03 11:38:28;;;;;;;3.30;1.33;;;22.30;99.90;;;;;;5029450;28;20033;-34
2022/07/03 11:40:56;;;;;;;0.80;0.80;;;23.00;99.90;;;;;;5029345;28;20091;-32
2022/07/03 11:43:22;;;;;;;1.58;1.30;;;23.40;99.90;;;;;;5033966;28;20049;-35
2022/07/03 11:45:48;;;;;;;3.42;1.50;;;23.30;99.90;;;;;;5034783;28;20068;-35
2022/07/03 11:48:17;;;;;;;3.47;0.95;;;22.80;99.90;;;;;;5033254;28;20040;-34
2022/07/03 11:50:47;;;;;;;5.53;0.90;;;22.40;99.90;;;;;;5032601;28;20040;-33
2022/07/03 11:53:22;;;;;;;2.80;1.00;;;22.10;99.90;;;;;;5033607;28;20031;-37
2022/07/03 11:55:57;;;;;;;1.63;1.20;;;21.70;99.90;;;;;;5033710;28;20033;-34
2022/07/03 11:58:25;;;;;;;2.38;0.88;;;21.30;99.90;;;;;;5031503;28;20386;-36
2022/07/03 12:00:51;;;;;;;;;;;21.10;99.90;;;;;;5030971;28;20025;-32
2022/07/03 12:03:26;;;;;;;4.05;1.20;;;20.80;99.90;;;;;;5031906;28;20369;-40
2022/07/03 12:05:54;;;;;;;1.77;1.10;;;20.40;99.90;;;;;;5030989;28;20025;-40
2022/07/03 12:08:33;;;;;;;4.75;1.05;;;19.70;99.90;;;;;;5033655;28;20034;-47
2022/07/03 12:11:07;;;;;;;1.95;1.20;;;19.00;99.90;;;;;;5029299;28;20072;-43
2022/07/03 12:13:33;;;;;;;2.60;1.42;;;18.60;99.90;;;;;;5029721;28;20063;-37
2022/07/03 12:16:12;;;;;;;4.50;1.42;;;18.40;99.90;;;;;;5032708;28;20045;-38
2022/07/03 12:18:51;;;;;;;5.85;1.58;;;18.30;99.90;;;;;;5033588;28;20067;-37
2022/07/03 12:21:20;;;;;;;1.95;1.38;;;18.40;99.90;;;;;;5021795;28;20017;-36
2022/07/03 12:23:50;;;;;;;3.28;1.33;;;18.60;99.90;;;;;;5026359;28;20049;-38
2022/07/03 12:26:48;;;;;;;1.60;1.50;;;18.60;99.90;;;;;;5032842;28;20021;-37
2022/07/03 12:29:16;;;;;;;1.30;1.20;;;19.10;99.90;;;;;;5009354;28;20127;-34
2022/07/03 12:31:44;;;;;;;1.63;1.20;;;19.30;99.90;;;;;;5032729;28;20053;-39
2022/07/03 12:34:11;;;;;;;1.52;1.30;;;19.70;99.90;;;;;;5032933;28;20473;-32
2022/07/03 12:36:38;;;;;;;2.20;1.17;;;20.20;99.90;;;;;;5021447;28;20497;-38
2022/07/03 12:39:04;;;;;;;2.78;1.00;;;20.60;99.90;;;;;;5026953;28;20053;-31
2022/07/03 12:41:30;;;;;;;3.60;1.50;;;21.00;99.90;;;;;;5026450;28;20022;-30
2022/07/03 12:43:58;;;;;;;1.20;1.10;;;21.30;99.90;;;;;;5033907;28;20028;-34
2022/07/03 12:46:26;;;;;;;1.13;1.02;;;21.50;99.90;;;;;;5032970;28;20052;-31
2022/07/03 12:49:00;;;;;;;3.83;1.48;;;21.80;99.90;;;;;;5031678;28;20501;-39
2022/07/03 12:51:44;;;;;;;3.60;1.10;;;22.00;99.90;;;;;;5027814;28;20379;-33
2022/07/03 12:54:22;;;;;;;3.33;0.90;;;22.30;99.90;;;;;;5027646;28;20040;-33
2022/07/03 12:59:16;;;;;;;1.00;1.00;;;22.40;99.90;;;;;;5019201;28;20029;-48
2022/07/03 13:00:07;;;;;;;3.20;1.48;;;22.40;99.90;;;;;;5027753;28;20490;-39
2022/07/03 13:02:36;;;;;;;0.90;0.90;;;22.70;99.90;;;;;;5029754;28;20103;-38
2022/07/03 13:05:14;;;;;;;1.80;1.10;;;22.60;99.90;;;;;;5028779;28;20492;-39
2022/07/03 13:07:41;;;;;;;5.25;1.67;;;22.30;99.90;;;;;;5022807;28;20521;-39
2022/07/03 13:10:07;;;;;;;3.63;1.38;;;22.10;99.90;;;;;;5028717;28;20022;-33